Time;durP1;ratioP1;P1;durP2;ratioP2;P2;SDS_P1;SDS_P2;PMS_P1;PMS_P2;Temp;Humidity;BMP_temperature;BMP_pressure;BME280_temperature;BME280_humidity;BME280_pressure;Samples;Min_cycle;Max_cycle;Signal;HPM_P1;HPM_P2
2021/10/29 00:02:06;;;;;;;;;14.00;13.50;;;;;21.20;44.71;100018.44;5058803;28;45234;-73
2021/10/29 00:04:31;;;;;;;;;14.50;12.75;;;;;21.18;45.11;100021.13;5056556;28;50885;-73
2021/10/29 00:06:56;;;;;;;;;13.00;13.00;;;;;21.15;45.06;100023.06;5078546;28;58460;-73
2021/10/29 00:09:22;;;;;;;;;13.50;12.00;;;;;21.14;45.25;100021.34;5078706;28;45585;-72
2021/10/29 00:11:47;;;;;;;;;14.50;14.50;;;;;21.14;45.13;100022.22;5061659;28;57087;-73
2021/10/29 00:14:13;;;;;;;;;15.75;14.75;;;;;21.15;45.00;100012.47;5044314;28;59467;-73
2021/10/29 00:16:38;;;;;;;;;14.50;14.50;;;;;21.14;44.84;100016.06;5058203;28;47917;-72
2021/10/29 00:19:04;;;;;;;;;14.75;13.25;;;;;21.08;45.12;100006.56;5072787;28;56465;-73
2021/10/29 00:21:29;;;;;;;;;14.00;12.50;;;;;21.10;45.32;100003.84;5061514;28;54282;-73
2021/10/29 00:23:56;;;;;;;;;15.50;14.00;;;;;21.09;45.00;99997.66;5060743;28;64269;-73
2021/10/29 00:26:22;;;;;;;;;15.00;14.25;;;;;21.09;45.29;100010.94;5061616;28;46866;-73
2021/10/29 00:28:47;;;;;;;;;13.25;11.75;;;;;21.06;45.58;100007.56;5076300;28;45351;-73
2021/10/29 00:31:13;;;;;;;;;13.00;12.50;;;;;21.04;45.15;100001.50;5064937;28;53677;-73
2021/10/29 00:33:38;;;;;;;;;14.25;13.75;;;;;21.04;45.28;99999.69;5081604;28;56025;-73
2021/10/29 00:36:04;;;;;;;;;17.25;15.00;;;;;21.03;45.56;99997.13;5048452;28;48163;-73
2021/10/29 00:38:29;;;;;;;;;14.25;14.00;;;;;21.02;45.09;99996.22;5065153;28;45281;-73
2021/10/29 00:40:54;;;;;;;;;18.75;15.00;;;;;21.00;45.35;99989.28;5065167;28;45314;-72
2021/10/29 00:43:20;;;;;;;;;16.50;14.00;;;;;20.98;45.14;99992.00;5065171;28;45360;-72
2021/10/29 00:45:47;;;;;;;;;14.50;14.50;;;;;20.95;45.25;99994.81;5081430;28;55185;-73
2021/10/29 00:48:13;;;;;;;;;15.75;13.25;;;;;20.91;45.06;99990.56;5064986;28;45222;-72
2021/10/29 00:50:39;;;;;;;;;16.25;14.50;;;;;20.89;45.08;99993.28;5065325;28;45416;-72
2021/10/29 00:53:04;;;;;;;;;14.25;12.00;;;;;20.87;45.20;99987.19;5064633;28;45506;-72
2021/10/29 00:55:29;;;;;;;;;17.00;13.00;;;;;20.84;45.25;99981.16;5064696;28;47731;-72
2021/10/29 00:57:55;;;;;;;;;18.00;15.75;;;;;20.85;44.80;99983.75;5064346;28;57798;-72
2021/10/29 01:00:20;;;;;;;;;16.00;14.00;;;;;20.84;44.83;99981.16;5081296;28;49437;-73
2021/10/29 01:02:46;;;;;;;;;14.00;11.75;;;;;20.82;45.11;99977.72;5064758;28;45561;-73
2021/10/29 01:05:11;;;;;;;;;14.25;14.00;;;;;20.82;45.46;99975.06;5064250;28;56785;-73
2021/10/29 01:07:37;;;;;;;;;14.00;11.50;;;;;20.83;45.05;99971.47;5064178;28;59057;-73
2021/10/29 01:10:04;;;;;;;;;11.50;10.75;;;;;20.84;44.98;99978.50;5081627;28;45524;-73
2021/10/29 01:12:29;;;;;;;;;14.75;13.50;;;;;20.84;45.21;99966.09;5064884;28;45477;-73
2021/10/29 01:14:56;;;;;;;;;15.25;14.25;;;;;20.85;45.12;99969.63;5082400;28;46118;-73
2021/10/29 01:17:21;;;;;;;;;14.75;13.75;;;;;20.85;45.09;99964.34;5064793;28;45262;-73
2021/10/29 01:19:49;;;;;;;;;15.00;15.00;;;;;20.84;45.01;99958.13;5064696;28;45264;-73
2021/10/29 01:22:14;;;;;;;;;14.50;14.50;;;;;20.81;45.43;99957.44;5064911;28;45331;-73
2021/10/29 01:24:40;;;;;;;;;14.50;13.75;;;;;20.78;45.30;99961.09;5080711;28;59762;-73
2021/10/29 01:27:10;;;;;;;;;14.25;14.00;;;;;20.77;45.40;99954.06;5082152;27;56723;-73
2021/10/29 01:29:36;;;;;;;;;14.50;14.00;;;;;20.77;45.31;99948.75;5082332;27;45687;-73
2021/10/29 01:32:02;;;;;;;;;13.50;13.50;;;;;20.76;45.42;99947.03;5064477;28;45538;-73
2021/10/29 01:34:27;;;;;;;;;16.50;15.25;;;;;20.77;45.50;99946.13;5064197;28;47228;-73
2021/10/29 01:36:52;;;;;;;;;13.25;10.50;;;;;20.77;45.48;99948.75;5063863;28;45403;-73
2021/10/29 01:39:18;;;;;;;;;15.50;15.00;;;;;20.76;45.25;99941.75;5082586;27;45216;-73
2021/10/29 01:41:44;;;;;;;;;13.25;13.25;;;;;20.74;45.24;99935.63;5047273;28;45169;-73
2021/10/29 01:44:09;;;;;;;;;14.25;13.00;;;;;20.72;45.64;99940.16;5063788;28;45339;-73
2021/10/29 01:46:35;;;;;;;;;15.50;13.75;;;;;20.68;45.58;99935.91;5080525;28;45295;-73
2021/10/29 01:49:00;;;;;;;;;16.25;13.25;;;;;20.67;45.84;99926.22;5047599;28;45206;-73
2021/10/29 01:51:26;;;;;;;;;13.25;13.25;;;;;20.66;45.31;99928.94;5080415;28;60682;-73
2021/10/29 01:53:51;;;;;;;;;14.25;13.50;;;;;20.65;45.88;99919.28;5063730;28;45724;-73
2021/10/29 01:56:17;;;;;;;;;15.00;14.00;;;;;20.66;46.04;99924.50;5063268;28;60451;-73
2021/10/29 01:58:42;;;;;;;;;14.50;14.50;;;;;20.67;45.59;99918.25;5047131;28;45794;-73
2021/10/29 02:01:08;;;;;;;;;13.25;13.25;;;;;20.66;45.69;99918.34;5080658;28;45354;-72
2021/10/29 02:03:34;;;;;;;;;13.50;13.50;;;;;20.65;45.91;99909.53;5063216;28;59383;-72
2021/10/29 02:05:59;;;;;;;;;13.50;13.50;;;;;20.63;45.38;99908.75;5082046;27;45380;-72
2021/10/29 02:08:27;;;;;;;;;15.25;13.00;;;;;20.63;45.34;99907.88;5081885;28;45416;-72
2021/10/29 02:10:53;;;;;;;;;13.00;12.25;;;;;20.57;45.67;99903.72;5063276;28;45576;-72
2021/10/29 02:13:19;;;;;;;;;13.25;13.00;;;;;20.58;45.78;99910.72;5081900;27;45309;-72
2021/10/29 02:15:44;;;;;;;;;16.00;13.75;;;;;20.57;45.35;99909.00;5081638;27;45464;-73
2021/10/29 02:18:09;;;;;;;;;15.75;11.50;;;;;20.55;45.41;99895.81;5081684;27;45370;-73
2021/10/29 02:20:35;;;;;;;;;13.25;12.00;;;;;20.56;45.43;99896.69;5081875;27;45203;-73
2021/10/29 02:23:00;;;;;;;;;13.75;13.75;;;;;20.53;45.42;99896.84;5079733;28;56610;-73
2021/10/29 02:25:26;;;;;;;;;13.50;13.25;;;;;20.55;45.30;99894.97;5081868;27;45497;-73
2021/10/29 02:27:51;;;;;;;;;11.00;10.50;;;;;20.52;45.54;99882.72;5080151;28;45654;-73
2021/10/29 02:30:34;;;;;;;;;14.50;12.25;;;;;20.51;45.39;99888.97;5046035;28;48102;-73
2021/10/29 02:33:00;;;;;;;;;12.25;12.25;;;;;20.53;45.54;99878.28;5063704;28;48300;-73
2021/10/29 02:35:25;;;;;;;;;12.00;11.25;;;;;20.52;45.42;99879.22;5045741;28;63006;-73
2021/10/29 02:37:50;;;;;;;;;12.25;12.25;;;;;20.51;45.58;99883.66;5063463;28;45600;-73
2021/10/29 02:40:16;;;;;;;;;13.50;12.25;;;;;20.50;45.39;99875.75;5062816;28;57197;-73
2021/10/29 02:42:41;;;;;;;;;15.00;13.25;;;;;20.50;45.23;99879.28;5063213;28;46077;-73
2021/10/29 02:45:07;;;;;;;;;13.50;12.00;;;;;20.48;45.41;99877.63;5080760;27;45433;-73
2021/10/29 02:47:32;;;;;;;;;13.00;11.25;;;;;20.43;45.62;99874.31;5042167;28;45439;-73
2021/10/29 02:49:58;;;;;;;;;12.75;11.25;;;;;20.45;45.31;99880.41;5074575;28;45485;-73
2021/10/29 02:52:23;;;;;;;;;11.50;11.50;;;;;20.44;45.46;99870.75;5062282;28;61165;-73
2021/10/29 02:54:49;;;;;;;;;14.75;12.50;;;;;20.43;45.69;99866.34;5045667;28;52018;-73
2021/10/29 02:57:15;;;;;;;;;13.25;10.00;;;;;20.42;45.67;99867.28;5046435;28;45369;-73
2021/10/29 02:59:40;;;;;;;;;9.25;9.00;;;;;20.42;45.23;99856.69;5080544;27;45819;-73
2021/10/29 03:02:06;;;;;;;;;16.25;13.00;;;;;20.38;45.69;99850.63;5079698;28;47163;-73
2021/10/29 03:04:32;;;;;;;;;10.75;10.75;;;;;20.37;45.69;99858.66;5079516;28;45274;-73
2021/10/29 03:06:57;;;;;;;;;13.75;12.00;;;;;20.38;45.67;99844.47;5062891;28;45327;-73
2021/10/29 03:09:22;;;;;;;;;12.50;12.00;;;;;20.36;45.47;99839.25;5080822;27;45598;-72
2021/10/29 03:11:48;;;;;;;;;12.25;10.25;;;;;20.36;45.78;99839.25;5079377;28;55141;-73
2021/10/29 03:14:13;;;;;;;;;11.50;11.50;;;;;20.37;45.25;99832.16;5062011;28;54783;-73
2021/10/29 03:16:39;;;;;;;;;13.75;13.75;;;;;20.36;45.38;99833.09;5062778;28;45316;-73
2021/10/29 03:19:04;;;;;;;;;12.50;11.00;;;;;20.36;45.40;99835.75;5079623;28;45257;-73
2021/10/29 03:21:30;;;;;;;;;12.50;12.00;;;;;20.33;45.23;99827.00;5045966;28;48117;-73
2021/10/29 03:23:55;;;;;;;;;13.00;9.50;;;;;20.37;45.15;99826.88;5061949;28;59655;-73
2021/10/29 03:26:21;;;;;;;;;11.50;9.25;;;;;20.36;45.11;99823.34;5080602;27;49236;-73
2021/10/29 03:28:46;;;;;;;;;11.25;8.50;;;;;20.37;45.24;99821.56;5062198;28;45492;-72
2021/10/29 03:31:11;;;;;;;;;12.25;11.00;;;;;20.32;44.74;99796.13;5079025;28;47344;-73
2021/10/29 03:33:39;;;;;;;;;12.50;9.50;;;;;20.36;45.15;99804.81;5045594;28;45307;-73
2021/10/29 03:36:05;;;;;;;;;11.50;11.00;;;;;20.39;44.66;99801.16;5079696;28;45378;-73
2021/10/29 03:40:59;;;;;;;;;11.25;9.50;;;;;20.39;45.32;99794.06;5079229;28;46052;-73
2021/10/29 03:43:33;;;;;;;;;11.25;11.00;;;;;20.41;44.96;99791.31;5078899;28;45335;-73
2021/10/29 03:46:03;;;;;;;;;10.50;9.50;;;;;20.42;45.09;99793.94;5080578;27;45271;-73
2021/10/29 03:48:39;;;;;;;;;11.50;8.75;;;;;20.39;45.00;99794.06;5062575;28;45492;-73
2021/10/29 03:51:13;;;;;;;;;11.75;10.00;;;;;20.37;45.04;99790.63;5063978;28;45367;-73
2021/10/29 03:53:51;;;;;;;;;9.50;9.50;;;;;20.38;45.00;99794.97;5078751;28;45343;-73
2021/10/29 03:56:20;;;;;;;;;8.50;8.50;;;;;20.41;45.02;99797.47;5065586;27;45280;-73
2021/10/29 03:58:46;;;;;;;;;12.25;10.75;;;;;20.43;44.94;99795.69;5047279;28;45869;-73
2021/10/29 04:01:12;;;;;;;;;8.50;8.50;;;;;20.43;45.04;99790.38;5065517;28;48114;-73
2021/10/29 04:03:37;;;;;;;;;9.75;9.00;;;;;20.43;44.91;99784.19;5065568;28;45301;-73
2021/10/29 04:06:03;;;;;;;;;12.75;10.75;;;;;20.41;44.74;99780.72;5083989;27;45227;-73
2021/10/29 04:08:28;;;;;;;;;12.50;10.00;;;;;20.40;45.00;99777.22;5082038;28;56528;-73
2021/10/29 04:10:56;;;;;;;;;10.00;10.00;;;;;20.39;44.94;99772.00;5082474;27;48293;-72
2021/10/29 04:13:21;;;;;;;;;10.00;9.75;;;;;20.38;44.79;99768.47;5049097;28;45596;-73
2021/10/29 04:15:47;;;;;;;;;11.50;9.00;;;;;20.38;44.76;99760.53;5065518;28;45399;-73
2021/10/29 04:18:12;;;;;;;;;11.50;10.00;;;;;20.37;45.00;99761.47;5081532;28;63652;-73
2021/10/29 04:20:38;;;;;;;;;10.75;9.00;;;;;20.40;44.99;99761.31;5065558;28;47501;-73
2021/10/29 04:23:03;;;;;;;;;10.75;10.00;;;;;20.38;44.81;99754.38;5083481;28;45218;-73
2021/10/29 04:25:29;;;;;;;;;7.75;7.25;;;;;20.38;44.96;99754.38;5065884;28;45342;-73
2021/10/29 04:27:59;;;;;;;;;10.75;8.25;;;;;20.41;45.26;99744.47;5065141;28;53284;-73
2021/10/29 04:30:26;;;;;;;;;10.75;9.75;;;;;20.45;45.22;99750.53;5065648;28;45352;-73
2021/10/29 04:32:52;;;;;;;;;9.75;8.00;;;;;20.47;45.00;99738.94;5065708;28;45356;-72
2021/10/29 04:35:17;;;;;;;;;13.00;10.50;;;;;20.49;44.67;99744.16;5065478;28;45242;-73
2021/10/29 04:37:42;;;;;;;;;10.00;9.25;;;;;20.49;44.84;99749.44;5064622;28;58913;-73
2021/10/29 04:40:08;;;;;;;;;13.50;9.75;;;;;20.49;44.83;99741.50;5065139;28;48302;-73
2021/10/29 04:42:37;;;;;;;;;8.75;8.75;;;;;20.51;44.52;99748.47;5065082;28;45295;-73
2021/10/29 04:45:04;;;;;;;;;10.25;8.75;;;;;20.52;44.86;99741.38;5064733;28;45376;-73
2021/10/29 04:47:29;;;;;;;;;12.25;9.50;;;;;20.52;44.87;99736.94;5065192;28;45883;-72
2021/10/29 04:49:55;;;;;;;;;10.75;9.50;;;;;20.55;44.60;99742.06;5082833;27;49647;-74
2021/10/29 04:52:20;;;;;;;;;10.25;9.50;;;;;20.55;44.63;99734.13;5081344;28;56317;-72
2021/10/29 04:54:45;;;;;;;;;9.75;8.50;;;;;20.57;44.59;99742.00;5081329;28;54074;-72
2021/10/29 04:57:11;;;;;;;;;11.75;8.25;;;;;20.54;44.40;99737.72;5081478;28;55280;-72
2021/10/29 04:59:36;;;;;;;;;10.75;8.00;;;;;20.54;44.84;99732.41;5064207;28;51811;-71
2021/10/29 05:02:02;;;;;;;;;10.00;9.75;;;;;20.54;45.20;99737.72;5064733;28;45328;-71
2021/10/29 05:04:27;;;;;;;;;11.25;10.25;;;;;20.53;44.78;99724.53;5081735;28;45263;-74
2021/10/29 05:06:53;;;;;;;;;11.00;9.25;;;;;20.53;44.80;99727.19;5082929;27;45247;-74
2021/10/29 05:09:18;;;;;;;;;11.75;10.50;;;;;20.50;45.04;99722.91;5064667;28;48123;-76
2021/10/29 05:11:44;;;;;;;;;10.75;9.25;;;;;20.52;45.24;99721.03;5063783;28;52138;-72
2021/10/29 05:14:14;;;;;;;;;10.25;9.75;;;;;20.56;45.49;99719.06;5064256;28;49857;-71
2021/10/29 05:16:43;;;;;;;;;10.75;10.00;;;;;20.58;45.60;99711.91;5064139;28;45812;-73
2021/10/29 05:19:12;;;;;;;;;10.75;9.25;;;;;20.58;45.71;99710.09;5064231;28;45456;-70
2021/10/29 05:21:37;;;;;;;;;9.75;9.00;;;;;20.60;45.17;99710.06;5063431;28;45493;-71
2021/10/29 05:24:03;;;;;;;;;11.50;11.00;;;;;20.63;45.31;99714.34;5081139;28;45486;-71
2021/10/29 05:26:28;;;;;;;;;13.75;11.50;;;;;20.65;46.13;99710.69;5081339;28;45325;-71
2021/10/29 05:28:53;;;;;;;;;14.75;11.25;;;;;20.65;45.70;99707.16;5080607;28;57270;-71
2021/10/29 05:31:19;;;;;;;;;17.25;11.75;;;;;20.65;45.84;99700.06;5080694;28;57733;-72
2021/10/29 05:33:44;;;;;;;;;9.75;9.25;;;;;20.67;45.49;99698.19;5081838;27;59755;-72
2021/10/29 05:36:10;;;;;;;;;12.50;10.00;;;;;20.67;45.42;99702.63;5064389;28;45551;-71
2021/10/29 05:38:35;;;;;;;;;11.25;9.50;;;;;20.64;45.40;99698.34;5046869;28;59195;-71
2021/10/29 05:41:01;;;;;;;;;11.00;9.50;;;;;20.60;45.50;99691.50;5048818;28;46064;-71
2021/10/29 05:43:27;;;;;;;;;12.00;10.00;;;;;20.62;45.47;99694.94;5080876;28;45358;-70
2021/10/29 05:45:53;;;;;;;;;11.75;9.50;;;;;20.60;45.44;99691.50;5048223;28;45243;-71
2021/10/29 05:48:18;;;;;;;;;12.25;9.50;;;;;20.63;45.52;99699.28;5080763;28;61952;-71
2021/10/29 05:50:51;;;;;;;;;11.75;9.50;;;;;20.66;45.50;99691.19;5082162;27;45415;-73
2021/10/29 05:55:54;;;;;;;;;13.75;10.50;;;;;20.69;45.55;99682.25;5065856;28;45280;-76
2021/10/29 05:58:20;;;;;;;;;10.50;10.25;;;;;20.70;45.78;99683.94;5076817;28;58245;-76
2021/10/29 06:00:45;;;;;;;;;12.75;11.50;;;;;20.73;45.65;99681.13;5046716;28;45342;-75
2021/10/29 06:03:11;;;;;;;;;13.50;10.75;;;;;20.77;45.44;99666.81;5080656;28;45308;-74
2021/10/29 06:05:36;;;;;;;;;14.50;11.75;;;;;20.75;45.59;99671.31;5063850;28;45568;-74
2021/10/29 06:08:01;;;;;;;;;11.25;10.50;;;;;20.77;45.95;99672.13;5063525;28;45370;-74
2021/10/29 06:10:28;;;;;;;;;11.00;9.75;;;;;20.75;45.23;99668.66;5046486;28;61393;-73
2021/10/29 06:12:53;;;;;;;;;14.25;12.00;;;;;20.73;45.65;99679.34;5047031;28;45355;-74
2021/10/29 06:15:19;;;;;;;;;11.75;10.00;;;;;20.73;45.47;99676.69;5080381;28;45326;-74
2021/10/29 06:17:45;;;;;;;;;11.75;9.50;;;;;20.71;45.42;99661.81;5063635;28;45448;-73
2021/10/29 06:20:11;;;;;;;;;11.25;10.00;;;;;20.73;45.47;99662.56;5063585;28;45700;-74
2021/10/29 06:22:51;;;;;;;;;12.25;10.75;;;;;20.71;45.62;99664.44;5045628;28;45448;-74
2021/10/29 06:30:26;;;;;;;;;12.00;9.25;;;;;20.70;45.60;99654.78;5080219;28;45344;-76
2021/10/29 06:32:52;;;;;;;;;13.00;9.50;;;;;20.68;45.45;99652.22;5080375;28;45513;-75
2021/10/29 06:35:17;;;;;;;;;10.75;10.75;;;;;20.67;45.40;99660.22;5046558;28;45493;-75
2021/10/29 06:37:43;;;;;;;;;11.25;10.00;;;;;20.66;45.08;99658.50;5080008;28;46411;-74
2021/10/29 06:40:11;;;;;;;;;12.75;11.75;;;;;20.65;44.92;99657.66;5081204;27;45274;-75
2021/10/29 06:42:37;;;;;;;;;11.25;10.00;;;;;20.66;45.02;99663.81;5047470;28;45276;-75
2021/10/29 06:45:22;;;;;;;;;10.00;8.25;;;;;20.67;45.36;99660.22;5080810;28;45209;-75
2021/10/29 06:48:15;;;;;;;;;12.25;8.75;;;;;20.68;45.44;99654.88;5081072;27;47020;-75
2021/10/29 07:39:59;;;;;;;;;9.25;8.25;;;;;20.90;44.85;99665.25;5080623;28;45511;-74
2021/10/29 07:42:26;;;;;;;;;8.25;6.75;;;;;20.88;44.72;99665.31;5064776;28;46041;-74
2021/10/29 07:44:51;;;;;;;;;19.00;10.00;;;;;20.88;44.98;99667.13;5056176;28;45324;-74
2021/10/29 07:47:27;;;;;;;;;9.25;7.00;;;;;20.91;44.29;99679.38;5058754;28;45301;-74
2021/10/29 07:49:55;;;;;;;;;10.00;9.00;;;;;20.89;44.33;99672.34;5027556;28;45419;-75
2021/10/29 07:52:20;;;;;;;;;10.00;8.25;;;;;20.89;44.43;99671.50;5058592;28;45440;-74
2021/10/29 07:54:47;;;;;;;;;14.25;7.00;;;;;20.91;44.53;99676.72;5041585;28;45359;-74
2021/10/29 07:57:18;;;;;;;;;7.50;7.25;;;;;20.93;44.44;99674.84;5060215;28;45275;-74
2021/10/29 07:59:45;;;;;;;;;12.75;8.00;;;;;20.93;43.87;99678.34;5052157;28;45323;-75
2021/10/29 08:02:10;;;;;;;;;10.75;9.00;;;;;20.94;43.73;99681.84;5041959;28;47510;-75
2021/10/29 08:04:36;;;;;;;;;12.50;8.00;;;;;20.94;44.10;99685.38;5052695;28;45261;-75
2021/10/29 08:07:01;;;;;;;;;9.00;8.00;;;;;20.96;44.07;99680.00;5058751;28;45353;-75
2021/10/29 08:09:27;;;;;;;;;11.50;8.75;;;;;20.97;44.04;99681.72;5058495;28;45328;-74
2021/10/29 08:11:53;;;;;;;;;7.25;7.25;;;;;21.00;43.99;99684.19;5041645;28;46921;-75
2021/10/29 08:14:20;;;;;;;;;16.50;9.75;;;;;20.99;43.77;99691.31;5058086;28;45473;-75
2021/10/29 08:16:46;;;;;;;;;8.00;6.50;;;;;20.98;43.67;99689.59;5060197;28;45400;-75
2021/10/29 08:19:11;;;;;;;;;12.25;8.50;;;;;21.00;43.99;99698.31;5058303;28;45321;-75
2021/10/29 08:21:37;;;;;;;;;7.25;7.25;;;;;21.00;43.84;99692.16;5025013;28;47101;-75
2021/10/29 08:24:02;;;;;;;;;9.00;8.25;;;;;20.98;43.79;99686.94;5058212;28;45157;-75
2021/10/29 08:26:28;;;;;;;;;7.75;6.00;;;;;21.00;43.53;99686.84;5058509;28;45559;-75
2021/10/29 08:28:53;;;;;;;;;11.25;6.25;;;;;21.02;43.95;99690.28;5025227;28;45717;-75
2021/10/29 08:31:18;;;;;;;;;9.50;8.75;;;;;21.04;43.58;99691.09;5060529;28;46176;-74
2021/10/29 08:33:48;;;;;;;;;12.00;8.00;;;;;21.05;43.48;99688.34;5058406;28;48459;-76
2021/10/29 08:36:16;;;;;;;;;14.75;10.50;;;;;21.05;43.31;99706.06;5058302;28;45356;-74
2021/10/29 08:38:41;;;;;;;;;13.00;9.00;;;;;21.04;43.39;99694.59;5052732;28;45339;-74
2021/10/29 08:41:06;;;;;;;;;12.75;9.00;;;;;21.04;43.60;99701.69;5058053;28;45879;-74
2021/10/29 08:43:32;;;;;;;;;12.75;10.25;;;;;21.04;43.63;99697.25;5052064;28;45790;-74
2021/10/29 08:45:58;;;;;;;;;16.50;11.75;;;;;21.03;43.64;99700.00;5042510;28;45354;-74
2021/10/29 08:48:25;;;;;;;;;14.00;8.75;;;;;21.04;43.23;99701.69;5061346;28;45268;-74
2021/10/29 08:50:50;;;;;;;;;12.25;8.50;;;;;21.04;43.28;99701.69;5044927;28;48236;-74
2021/10/29 08:53:16;;;;;;;;;11.25;9.00;;;;;21.03;43.61;99695.53;5061239;28;45411;-75
2021/10/29 08:55:48;;;;;;;;;8.50;5.75;;;;;21.02;43.29;99698.25;5061656;28;45541;-75
2021/10/29 08:58:18;;;;;;;;;13.25;11.75;;;;;20.97;43.46;99692.31;5060703;28;45547;-76
2021/10/29 09:00:45;;;;;;;;;11.50;9.75;;;;;20.93;43.66;99681.00;5060620;28;47237;-76
2021/10/29 09:03:28;;;;;;;;;11.00;8.25;;;;;20.99;43.59;99699.25;5054780;28;45819;-75
2021/10/29 09:06:18;;;;;;;;;10.00;8.25;;;;;21.02;43.67;99698.25;5038716;28;45391;-76
2021/10/29 09:09:02;;;;;;;;;10.25;9.00;;;;;21.01;43.46;99688.56;5050091;28;45483;-76
2021/10/29 09:11:48;;;;;;;;;10.50;9.00;;;;;21.01;43.58;99701.84;5046970;28;46209;-76
2021/10/29 09:34:10;;;;;;;;;15.75;7.75;;;;;20.95;43.57;99705.66;5060658;28;45438;-76
2021/10/29 09:36:40;;;;;;;;;8.75;6.50;;;;;20.97;43.63;99710.91;5060786;28;45266;-75
2021/10/29 09:39:10;;;;;;;;;9.50;7.00;;;;;20.95;43.78;99697.72;5043980;28;45324;-75
2021/10/29 09:41:37;;;;;;;;;13.50;9.00;;;;;20.98;43.80;99709.97;5044668;28;45625;-75
2021/10/29 09:44:11;;;;;;;;;14.50;8.25;;;;;20.98;43.96;99702.84;5080902;27;46377;-76
2021/10/29 09:46:47;;;;;;;;;14.25;9.25;;;;;21.00;43.52;99705.44;5063020;28;45464;-75
2021/10/29 09:49:16;;;;;;;;;21.50;11.75;;;;;20.98;43.85;99707.31;5051298;28;45406;-75
2021/10/29 09:51:53;;;;;;;;;14.00;10.00;;;;;21.03;43.90;99702.63;5043858;28;45518;-75
2021/10/29 09:54:26;;;;;;;;;9.75;7.00;;;;;21.02;43.90;99708.84;5032572;28;45456;-75
2021/10/29 09:56:55;;;;;;;;;13.00;9.00;;;;;21.02;43.81;99699.09;5061493;28;45497;-76
2021/10/29 09:59:21;;;;;;;;;11.00;6.25;;;;;21.03;44.03;99713.25;5060750;28;45324;-76
2021/10/29 10:01:49;;;;;;;;;16.50;10.50;;;;;21.04;44.33;99707.00;5061589;28;45377;-75
2021/10/29 10:04:18;;;;;;;;;11.50;8.75;;;;;21.03;44.48;99719.41;5043472;28;46780;-76
2021/10/29 10:06:44;;;;;;;;;9.75;6.50;;;;;21.03;44.25;99726.50;5060247;28;45975;-75
2021/10/29 10:09:10;;;;;;;;;9.00;7.50;;;;;20.96;44.45;99718.00;5043747;28;45476;-76
2021/10/29 10:11:39;;;;;;;;;9.00;8.00;;;;;20.98;44.79;99712.59;5056129;28;45461;-75
2021/10/29 10:14:05;;;;;;;;;8.00;7.50;;;;;20.98;44.41;99726.72;5037331;28;47060;-76
2021/10/29 10:16:32;;;;;;;;;6.50;6.50;;;;;21.02;44.78;99730.06;5026470;28;45973;-76
2021/10/29 10:18:58;;;;;;;;;6.75;5.00;;;;;21.05;44.91;99735.25;5060258;28;45289;-76
2021/10/29 10:21:27;;;;;;;;;8.00;7.00;;;;;21.02;44.99;99738.88;5077677;28;45832;-75
2021/10/29 10:23:55;;;;;;;;;8.00;6.00;;;;;21.03;45.08;99734.47;5059985;28;45450;-75
2021/10/29 10:46:21;;;;;;;;;7.75;7.25;;;;;21.09;46.50;99721.72;5046612;28;45371;-74
2021/10/29 10:49:11;;;;;;;;;5.25;4.75;;;;;21.04;46.43;99709.66;5063564;28;45303;-76
2021/10/29 11:10:29;;;;;;;;;10.00;8.00;;;;;21.14;47.73;99742.75;4958334;28;45407;-77
2021/10/29 11:13:13;;;;;;;;;7.75;6.50;;;;;21.16;47.87;99733.75;4950023;28;45396;-75
2021/10/29 11:15:39;;;;;;;;;9.75;7.00;;;;;21.15;48.07;99734.69;5002967;28;45333;-79
2021/10/29 11:18:17;;;;;;;;;7.75;6.00;;;;;21.14;48.17;99730.34;5003279;28;45544;-86
2021/10/29 11:23:22;;;;;;;;;9.25;7.00;;;;;21.01;48.54;99704.47;5042589;28;45399;-75
2021/10/29 11:28:42;;;;;;;;;7.75;7.75;;;;;21.02;48.78;99715.00;5060191;28;45386;-81
2021/10/29 11:31:14;;;;;;;;;7.50;7.00;;;;;21.00;49.02;99706.28;5059872;28;47827;-81
2021/10/29 11:33:47;;;;;;;;;12.00;7.00;;;;;20.97;48.85;99702.94;5059094;28;45351;-81
2021/10/29 11:36:14;;;;;;;;;7.25;7.00;;;;;20.87;48.93;99692.78;5059418;28;45497;-82
2021/10/29 11:38:42;;;;;;;;;10.75;7.75;;;;;20.94;49.19;99695.13;5043379;28;45564;-80
2021/10/29 11:41:10;;;;;;;;;11.25;7.25;;;;;20.89;49.11;99692.72;5059809;28;45319;-81
2021/10/29 11:43:36;;;;;;;;;9.75;7.50;;;;;20.83;49.20;99688.56;5041834;28;45254;-80
2021/10/29 11:46:05;;;;;;;;;9.00;7.75;;;;;20.86;49.88;99688.44;5042205;28;45292;-81
2021/10/29 11:48:33;;;;;;;;;9.25;7.00;;;;;20.83;49.08;99688.56;5058947;28;45406;-80
2021/10/29 11:54:29;;;;;;;;;8.00;8.00;;;;;20.69;49.57;99659.22;5059144;28;45234;-79
2021/10/29 12:07:34;;;;;;;;;11.75;11.75;;;;;20.75;50.01;99679.25;5045221;28;45418;-79
2021/10/29 12:10:23;;;;;;;;;10.50;9.00;;;;;20.68;50.27;99662.81;5026359;28;45371;-79
2021/10/29 12:12:50;;;;;;;;;10.75;10.00;;;;;20.70;50.12;99655.66;5058768;28;45365;-79
2021/10/29 12:15:26;;;;;;;;;8.00;7.50;;;;;20.80;50.20;99672.81;5025353;28;45193;-79
2021/10/29 12:20:46;;;;;;;;;13.25;10.50;;;;;20.84;50.30;99671.69;5044525;28;45443;-79
2021/10/29 12:23:28;;;;;;;;;9.00;8.25;;;;;20.78;50.14;99658.78;5047153;28;45319;-80
2021/10/29 12:26:05;;;;;;;;;10.00;7.00;;;;;20.83;50.23;99661.19;5061946;28;45285;-79
2021/10/29 12:28:42;;;;;;;;;11.50;9.25;;;;;20.80;50.48;99654.25;5063192;28;45285;-79
2021/10/29 12:31:21;;;;;;;;;8.75;7.75;;;;;20.87;50.45;99662.75;5033082;28;45527;-78
2021/10/29 12:58:49;;;;;;;;;15.00;11.50;;;;;20.82;50.61;99623.19;5062520;28;45346;-79
2021/10/29 13:03:22;;;;;;;;;19.75;13.25;;;;;20.88;50.42;99622.88;5010816;28;45463;-79
2021/10/29 13:05:57;;;;;;;;;15.00;12.75;;;;;20.86;50.29;99624.78;5061456;28;45462;-79
2021/10/29 13:08:29;;;;;;;;;15.25;9.25;;;;;20.88;50.22;99646.75;5061230;28;46938;-80
2021/10/29 13:10:58;;;;;;;;;19.75;12.25;;;;;20.84;50.37;99653.13;5044899;28;45421;-79
2021/10/29 13:13:31;;;;;;;;;16.00;13.25;;;;;20.87;50.58;99652.16;5061540;28;45307;-80
2021/10/29 13:16:10;;;;;;;;;16.50;13.50;;;;;20.86;50.42;99651.28;5060769;28;45315;-78
2021/10/29 13:54:05;;;;;;;;;7.75;7.75;;;;;20.77;50.74;99680.06;5061232;28;45452;-79
2021/10/29 14:02:39;;;;;;;;;12.50;9.00;;;;;20.69;50.96;99688.41;5060380;28;46046;-79
2021/10/29 14:32:26;;;;;;;;;12.50;10.00;;;;;20.69;52.41;99687.53;5059484;28;45342;-78
2021/10/29 14:34:57;;;;;;;;;14.25;9.75;;;;;20.69;52.43;99680.44;5062142;28;45254;-80
2021/10/29 14:37:54;;;;;;;;;13.50;10.75;;;;;20.72;52.31;99690.88;5044039;28;45459;-80
2021/10/29 14:40:18;;;;;;;;;14.50;12.75;;;;;20.74;52.55;99704.06;5060996;28;45505;-80
2021/10/29 14:42:48;;;;;;;;;12.00;9.25;;;;;20.73;52.68;99689.09;5060752;28;45243;-79
2021/10/29 14:45:20;;;;;;;;;12.50;9.25;;;;;20.75;52.24;99693.38;5061126;28;45338;-79
2021/10/29 14:50:54;;;;;;;;;8.25;8.25;;;;;20.78;52.38;99718.91;5060066;28;45531;-79
2021/10/29 15:27:24;;;;;;;;;18.50;13.50;;;;;20.76;53.73;99710.16;5042266;28;45236;-79
2021/10/29 15:29:57;;;;;;;;;15.75;12.00;;;;;20.75;53.68;99713.72;5059151;28;45354;-79
2021/10/29 15:32:44;;;;;;;;;17.25;11.00;;;;;20.74;53.45;99704.06;5027807;28;45372;-78
2021/10/29 15:46:05;;;;;;;;;14.25;11.50;;;;;20.71;53.62;99701.56;5043753;28;45450;-78
2021/10/29 15:48:40;;;;;;;;;15.25;11.25;;;;;20.66;53.65;99693.84;5058586;28;47354;-78
2021/10/29 15:51:05;;;;;;;;;10.00;10.00;;;;;20.72;53.92;99709.44;5060117;28;45230;-78
2021/10/29 15:53:30;;;;;;;;;13.25;10.50;;;;;20.76;53.65;99710.16;5051198;28;45177;-78
2021/10/29 15:55:59;;;;;;;;;10.50;10.00;;;;;20.71;53.73;99705.09;5042096;28;45567;-79
2021/10/29 16:01:17;;;;;;;;;11.50;9.50;;;;;20.83;53.73;99716.88;5045914;28;45459;-79
2021/10/29 16:17:45;;;;;;;;;13.50;11.25;;;;;20.95;53.57;99707.47;5059705;28;45275;-78
2021/10/29 16:20:11;;;;;;;;;13.25;12.25;;;;;20.97;53.04;99710.91;5058626;28;48523;-79
2021/10/29 16:22:45;;;;;;;;;14.25;11.50;;;;;20.96;53.16;99695.91;5057806;28;62344;-79
2021/10/29 16:25:15;;;;;;;;;16.25;11.25;;;;;20.93;53.00;99699.56;5075361;28;45255;-77
2021/10/29 16:30:22;;;;;;;;;9.75;9.75;;;;;20.95;53.28;99697.72;5058793;28;45390;-79